Time;durP1;ratioP1;P1;durP2;ratioP2;P2;SDS_P1;SDS_P2;PMS_P1;PMS_P2;Temp;Humidity;BMP_temperature;BMP_pressure;BME280_temperature;BME280_humidity;BME280_pressure;Samples;Min_cycle;Max_cycle;Signal;HPM_P1;HPM_P2
2022/03/25 00:00:51;;;;;;;67.03;27.03;;;;;;;;;;5043274;28;20659;-83
2022/03/25 00:03:21;;;;;;;67.07;26.70;;;;;;;;;;5052532;28;20220;-81
2022/03/25 00:05:49;;;;;;;69.43;27.13;;;;;;;;;;5050527;28;20294;-84
2022/03/25 00:08:17;;;;;;;64.87;26.03;;;;;;;;;;5053414;28;20203;-85
2022/03/25 00:10:44;;;;;;;64.30;26.67;;;;;;;;;;5050770;28;20240;-83
2022/03/25 00:13:12;;;;;;;65.53;26.63;;;;;;;;;;5050072;28;20235;-80
2022/03/25 00:15:39;;;;;;;64.70;26.80;;;;;;;;;;5050735;28;20256;-83
2022/03/25 00:18:06;;;;;;;59.53;26.33;;;;;;;;;;5050983;28;20282;-84
2022/03/25 00:20:35;;;;;;;70.73;26.20;;;;;;;;;;5057277;28;20234;-85
2022/03/25 00:23:02;;;;;;;63.33;26.07;;;;;;;;;;5048373;28;20219;-84
2022/03/25 00:25:30;;;;;;;63.13;26.93;;;;;;;;;;5051707;28;20670;-83
2022/03/25 00:27:57;;;;;;;70.53;26.47;;;;;;;;;;5046391;28;20214;-84
2022/03/25 00:30:24;;;;;;;60.87;25.53;;;;;;;;;;5050370;28;20204;-83
2022/03/25 00:32:51;;;;;;;65.93;26.23;;;;;;;;;;5050859;28;20640;-83
2022/03/25 00:35:19;;;;;;;59.00;25.57;;;;;;;;;;5050212;28;20203;-82
2022/03/25 00:37:48;;;;;;;66.77;25.43;;;;;;;;;;5050672;28;20263;-84
2022/03/25 00:40:15;;;;;;;60.47;23.73;;;;;;;;;;5052000;28;20208;-85
2022/03/25 00:42:43;;;;;;;69.33;25.30;;;;;;;;;;5047700;28;20219;-83
2022/03/25 00:45:10;;;;;;;66.33;25.23;;;;;;;;;;5050644;28;20216;-83
2022/03/25 00:47:38;;;;;;;59.43;25.17;;;;;;;;;;5054605;28;20218;-83
2022/03/25 00:50:05;;;;;;;63.53;25.87;;;;;;;;;;5051222;28;20230;-85
2022/03/25 00:52:33;;;;;;;69.87;27.07;;;;;;;;;;5055631;28;20768;-83
2022/03/25 00:55:01;;;;;;;64.17;25.83;;;;;;;;;;5051549;28;20599;-83
2022/03/25 00:57:28;;;;;;;64.80;25.87;;;;;;;;;;5052513;28;20253;-83
2022/03/25 00:59:56;;;;;;;70.77;26.13;;;;;;;;;;5051647;28;20203;-84
2022/03/25 01:02:23;;;;;;;69.23;26.47;;;;;;;;;;5054069;28;20223;-82
2022/03/25 01:04:50;;;;;;;62.80;25.67;;;;;;;;;;5050816;28;20203;-82
2022/03/25 01:07:18;;;;;;;63.03;24.30;;;;;;;;;;5048492;28;20251;-82
2022/03/25 01:09:45;;;;;;;60.73;23.93;;;;;;;;;;5047632;28;20199;-82
2022/03/25 01:12:14;;;;;;;61.73;25.13;;;;;;;;;;5051231;28;21218;-83
2022/03/25 01:14:42;;;;;;;59.80;23.33;;;;;;;;;;5049016;28;20585;-82
2022/03/25 01:17:09;;;;;;;63.03;24.30;;;;;;;;;;5046618;28;20373;-83
2022/03/25 01:19:36;;;;;;;59.67;23.97;;;;;;;;;;5057584;28;20202;-83
2022/03/25 01:22:05;;;;;;;62.50;22.57;;;;;;;;;;5043551;28;20214;-83
2022/03/25 01:24:32;;;;;;;64.10;24.00;;;;;;;;;;5046225;28;20207;-82
2022/03/25 01:27:00;;;;;;;63.87;22.77;;;;;;;;;;5047970;28;20225;-83
2022/03/25 01:29:29;;;;;;;64.43;22.67;;;;;;;;;;5054797;28;20649;-82
2022/03/25 01:31:56;;;;;;;59.03;22.57;;;;;;;;;;5048684;28;20230;-84
2022/03/25 01:34:23;;;;;;;61.17;22.63;;;;;;;;;;5047511;28;20214;-81
2022/03/25 01:36:50;;;;;;;59.70;24.10;;;;;;;;;;5049670;28;20762;-83
2022/03/25 01:39:18;;;;;;;61.07;23.47;;;;;;;;;;5049157;28;20235;-83
2022/03/25 01:41:47;;;;;;;58.87;21.67;;;;;;;;;;5048068;28;20219;-81
2022/03/25 01:44:15;;;;;;;58.03;22.40;;;;;;;;;;5047703;28;20589;-83
2022/03/25 01:46:44;;;;;;;55.80;22.47;;;;;;;;;;5049472;28;20608;-82
2022/03/25 01:49:13;;;;;;;59.87;22.27;;;;;;;;;;5053530;28;20762;-84
2022/03/25 01:51:40;;;;;;;55.07;21.77;;;;;;;;;;5057330;28;20946;-83
2022/03/25 01:54:11;;;;;;;56.40;21.83;;;;;;;;;;5051838;28;20564;-84
2022/03/25 01:56:38;;;;;;;55.33;21.83;;;;;;;;;;5054709;28;20667;-83
2022/03/25 01:59:05;;;;;;;59.10;22.27;;;;;;;;;;5055571;28;20233;-84
2022/03/25 02:01:33;;;;;;;55.13;21.73;;;;;;;;;;5048896;28;20322;-84
2022/03/25 02:04:01;;;;;;;52.53;21.10;;;;;;;;;;5049837;28;20290;-84
2022/03/25 02:06:28;;;;;;;60.23;21.67;;;;;;;;;;5050491;28;20261;-83
2022/03/25 02:08:56;;;;;;;53.57;20.87;;;;;;;;;;5050646;28;20225;-84
2022/03/25 02:11:23;;;;;;;57.23;20.20;;;;;;;;;;5056498;28;20207;-84
2022/03/25 02:13:50;;;;;;;56.07;21.00;;;;;;;;;;5053305;28;20709;-82
2022/03/25 02:16:18;;;;;;;51.77;20.07;;;;;;;;;;5054792;28;20259;-84
2022/03/25 02:18:45;;;;;;;59.20;20.47;;;;;;;;;;5054961;28;20207;-83
2022/03/25 02:21:13;;;;;;;57.73;20.63;;;;;;;;;;5057266;28;20266;-83
2022/03/25 02:23:42;;;;;;;51.30;19.43;;;;;;;;;;5055813;28;20271;-84
2022/03/25 02:26:09;;;;;;;56.30;20.00;;;;;;;;;;5045898;28;20218;-84
2022/03/25 02:28:36;;;;;;;53.30;20.27;;;;;;;;;;5054095;28;20289;-82
2022/03/25 02:31:03;;;;;;;47.97;19.13;;;;;;;;;;5052706;28;20210;-84
2022/03/25 02:33:30;;;;;;;54.50;19.97;;;;;;;;;;5044761;28;20258;-82
2022/03/25 02:35:58;;;;;;;48.60;19.43;;;;;;;;;;5048913;28;20202;-85
2022/03/25 02:38:25;;;;;;;46.00;19.77;;;;;;;;;;5054103;28;20195;-85
2022/03/25 02:40:53;;;;;;;56.23;20.60;;;;;;;;;;5053885;28;20207;-85
2022/03/25 02:43:21;;;;;;;49.77;17.83;;;;;;;;;;5048894;28;20219;-85
2022/03/25 02:45:49;;;;;;;44.70;18.13;;;;;;;;;;5057866;28;20203;-84
2022/03/25 02:48:16;;;;;;;48.17;18.30;;;;;;;;;;5056705;28;20250;-84
2022/03/25 02:50:46;;;;;;;47.50;17.80;;;;;;;;;;5051887;28;20234;-83
2022/03/25 02:53:13;;;;;;;50.73;18.30;;;;;;;;;;5055741;28;20707;-84
2022/03/25 02:55:41;;;;;;;49.70;18.37;;;;;;;;;;5053002;28;20583;-82
2022/03/25 02:58:10;;;;;;;48.93;18.33;;;;;;;;;;5048334;28;20529;-82
2022/03/25 03:00:37;;;;;;;52.83;19.23;;;;;;;;;;5053133;28;20255;-83
2022/03/25 03:03:04;;;;;;;49.80;19.37;;;;;;;;;;5053062;28;20691;-83
2022/03/25 03:05:33;;;;;;;49.90;19.00;;;;;;;;;;5052040;28;20277;-83
2022/03/25 03:08:00;;;;;;;53.07;19.23;;;;;;;;;;5059577;28;20238;-84
2022/03/25 03:10:27;;;;;;;46.67;18.83;;;;;;;;;;5056589;28;20543;-84
2022/03/25 03:12:55;;;;;;;45.37;17.77;;;;;;;;;;5053027;28;20302;-83
2022/03/25 03:15:25;;;;;;;46.70;18.40;;;;;;;;;;5059490;28;21019;-84
2022/03/25 03:17:52;;;;;;;42.03;16.83;;;;;;;;;;5058260;28;20548;-82
2022/03/25 03:20:21;;;;;;;44.00;17.30;;;;;;;;;;5060548;28;20230;-84
2022/03/25 03:22:48;;;;;;;43.67;16.73;;;;;;;;;;5057897;28;20226;-83
2022/03/25 03:25:15;;;;;;;48.87;17.83;;;;;;;;;;5054183;28;20202;-84
2022/03/25 03:27:43;;;;;;;43.70;16.87;;;;;;;;;;5053763;28;20499;-83
2022/03/25 03:30:11;;;;;;;47.80;17.73;;;;;;;;;;5054925;28;20203;-84
2022/03/25 03:32:39;;;;;;;47.03;17.20;;;;;;;;;;5055321;28;20551;-82
2022/03/25 03:35:08;;;;;;;44.70;18.37;;;;;;;;;;5051324;28;21395;-84
2022/03/25 03:37:41;;;;;;;46.40;17.53;;;;;;;;;;5054287;28;20483;-81
2022/03/25 03:40:09;;;;;;;52.23;17.30;;;;;;;;;;5052179;28;21542;-84
2022/03/25 03:42:37;;;;;;;45.40;16.47;;;;;;;;;;5057581;28;20309;-83
2022/03/25 03:45:04;;;;;;;41.23;16.57;;;;;;;;;;5053034;28;20204;-83
2022/03/25 03:47:31;;;;;;;39.00;15.70;;;;;;;;;;5052704;28;20308;-85
2022/03/25 03:50:00;;;;;;;48.20;17.87;;;;;;;;;;5052716;28;20461;-81
2022/03/25 03:52:27;;;;;;;44.83;17.80;;;;;;;;;;5051075;28;20482;-83
2022/03/25 03:54:54;;;;;;;41.93;16.53;;;;;;;;;;5055633;28;20212;-82
2022/03/25 03:57:21;;;;;;;43.43;16.13;;;;;;;;;;5050881;28;20241;-84
2022/03/25 03:59:48;;;;;;;45.53;16.80;;;;;;;;;;5059678;28;21290;-83
2022/03/25 04:02:16;;;;;;;37.67;16.20;;;;;;;;;;5051329;28;21020;-84
2022/03/25 04:04:43;;;;;;;46.37;16.53;;;;;;;;;;5057020;28;20202;-84
2022/03/25 04:07:12;;;;;;;43.23;16.60;;;;;;;;;;5058042;28;20223;-83
2022/03/25 04:09:39;;;;;;;39.53;15.60;;;;;;;;;;5052828;28;20234;-84
2022/03/25 04:12:08;;;;;;;42.37;14.97;;;;;;;;;;5062582;28;20765;-82
2022/03/25 04:14:36;;;;;;;44.53;16.30;;;;;;;;;;5049171;28;20460;-84
2022/03/25 04:17:03;;;;;;;47.93;15.60;;;;;;;;;;5054003;28;20458;-81
2022/03/25 04:19:30;;;;;;;46.90;16.17;;;;;;;;;;5050121;28;20469;-82
2022/03/25 04:21:57;;;;;;;49.63;16.73;;;;;;;;;;5050888;28;20229;-84
2022/03/25 04:24:26;;;;;;;39.67;15.93;;;;;;;;;;5057986;28;20482;-81
2022/03/25 04:26:53;;;;;;;43.47;15.77;;;;;;;;;;5051121;28;20468;-82
2022/03/25 04:29:22;;;;;;;42.57;15.00;;;;;;;;;;5052029;28;20561;-83
2022/03/25 04:31:49;;;;;;;48.07;16.63;;;;;;;;;;5052213;28;20477;-82
2022/03/25 04:34:16;;;;;;;52.13;16.50;;;;;;;;;;5054119;28;20695;-82
2022/03/25 04:36:44;;;;;;;41.03;15.33;;;;;;;;;;5044409;28;20641;-81
2022/03/25 04:39:11;;;;;;;43.03;15.00;;;;;;;;;;5048412;28;20456;-81
2022/03/25 04:41:39;;;;;;;41.30;15.17;;;;;;;;;;5048780;28;20486;-82
2022/03/25 04:44:07;;;;;;;44.00;15.50;;;;;;;;;;5049731;28;20515;-82
2022/03/25 04:46:35;;;;;;;43.73;14.63;;;;;;;;;;5042054;28;20546;-84
2022/03/25 04:49:03;;;;;;;41.13;14.90;;;;;;;;;;5043875;28;20922;-82
2022/03/25 04:51:30;;;;;;;43.40;15.77;;;;;;;;;;5050715;28;20469;-83
2022/03/25 04:53:58;;;;;;;50.30;13.90;;;;;;;;;;5053284;28;20463;-84
2022/03/25 04:56:25;;;;;;;50.97;15.40;;;;;;;;;;5046571;28;20593;-83
2022/03/25 04:58:53;;;;;;;40.73;14.80;;;;;;;;;;5051267;28;20531;-83
2022/03/25 05:01:21;;;;;;;39.30;13.90;;;;;;;;;;5046017;28;21040;-81
2022/03/25 05:03:48;;;;;;;50.93;15.23;;;;;;;;;;5047320;28;20299;-82
2022/03/25 05:06:15;;;;;;;41.53;15.20;;;;;;;;;;5051988;28;20468;-82
2022/03/25 05:08:42;;;;;;;43.43;14.57;;;;;;;;;;5047636;28;20576;-83
2022/03/25 05:11:10;;;;;;;41.63;14.20;;;;;;;;;;5050935;28;20465;-84
2022/03/25 05:13:37;;;;;;;43.13;15.27;;;;;;;;;;5047390;28;20478;-82
2022/03/25 05:16:06;;;;;;;41.90;14.83;;;;;;;;;;5044529;28;20706;-82
2022/03/25 05:18:33;;;;;;;41.43;15.60;;;;;;;;;;5045768;28;20481;-82
2022/03/25 05:21:01;;;;;;;43.23;15.17;;;;;;;;;;5048055;28;20489;-83
2022/03/25 05:23:28;;;;;;;43.50;15.73;;;;;;;;;;5044347;28;20517;-82
2022/03/25 05:25:55;;;;;;;43.47;16.53;;;;;;;;;;5051474;28;20564;-84
2022/03/25 05:28:22;;;;;;;38.77;15.37;;;;;;;;;;5048224;28;20477;-84
2022/03/25 05:30:50;;;;;;;39.83;13.97;;;;;;;;;;5053148;28;20552;-83
2022/03/25 05:33:18;;;;;;;38.10;14.90;;;;;;;;;;5051728;28;20235;-83
2022/03/25 05:35:45;;;;;;;42.33;15.10;;;;;;;;;;5056091;28;20285;-81
2022/03/25 05:38:13;;;;;;;47.43;16.17;;;;;;;;;;5051065;28;20450;-83
2022/03/25 05:40:43;;;;;;;40.37;15.27;;;;;;;;;;5055226;28;20215;-81
2022/03/25 05:43:10;;;;;;;39.17;14.77;;;;;;;;;;5052066;28;20482;-83
2022/03/25 05:45:38;;;;;;;38.37;14.47;;;;;;;;;;5056112;28;20226;-82
2022/03/25 05:48:05;;;;;;;43.00;15.27;;;;;;;;;;5049760;28;20584;-85
2022/03/25 05:50:34;;;;;;;50.13;16.70;;;;;;;;;;5049080;28;20290;-84
2022/03/25 05:53:01;;;;;;;50.33;16.77;;;;;;;;;;5050945;28;21075;-82
2022/03/25 05:55:28;;;;;;;41.93;15.63;;;;;;;;;;5052065;28;20217;-83
2022/03/25 05:57:56;;;;;;;45.90;15.97;;;;;;;;;;5055047;28;20203;-83
2022/03/25 06:00:23;;;;;;;60.40;17.33;;;;;;;;;;5052540;28;20218;-83
2022/03/25 06:02:50;;;;;;;39.90;14.53;;;;;;;;;;5043862;28;20243;-82
2022/03/25 06:05:18;;;;;;;44.50;16.60;;;;;;;;;;5053911;28;21010;-84
2022/03/25 06:07:48;;;;;;;53.27;16.80;;;;;;;;;;5048971;28;20261;-83
2022/03/25 06:10:16;;;;;;;43.80;17.23;;;;;;;;;;5049987;28;20804;-84
2022/03/25 06:12:43;;;;;;;49.63;15.83;;;;;;;;;;5054115;28;20225;-83
2022/03/25 06:15:11;;;;;;;41.97;16.97;;;;;;;;;;5046566;28;20199;-83
2022/03/25 06:17:45;;;;;;;55.23;17.20;;;;;;;;;;5061381;28;20206;-83
2022/03/25 06:20:13;;;;;;;55.93;17.63;;;;;;;;;;5052864;28;20199;-81
2022/03/25 06:22:41;;;;;;;51.30;17.00;;;;;;;;;;5056833;28;20250;-83
2022/03/25 06:25:11;;;;;;;50.57;18.63;;;;;;;;;;5049155;28;20199;-85
2022/03/25 06:27:46;;;;;;;49.73;19.83;;;;;;;;;;5050885;28;20231;-84
2022/03/25 06:30:13;;;;;;;54.43;19.83;;;;;;;;;;5057606;28;20206;-84
2022/03/25 06:32:41;;;;;;;66.50;20.83;;;;;;;;;;5055376;28;20227;-82
2022/03/25 06:35:08;;;;;;;49.17;19.63;;;;;;;;;;5055598;28;20923;-84
2022/03/25 06:37:36;;;;;;;43.97;17.70;;;;;;;;;;5056456;28;20232;-83
2022/03/25 06:40:05;;;;;;;43.97;16.87;;;;;;;;;;5053669;28;20234;-84
2022/03/25 06:42:34;;;;;;;45.13;16.77;;;;;;;;;;5062344;28;20700;-83
2022/03/25 06:45:02;;;;;;;44.37;17.33;;;;;;;;;;5056003;28;20198;-85
2022/03/25 06:47:29;;;;;;;43.80;17.30;;;;;;;;;;5047640;28;20313;-84
2022/03/25 06:49:56;;;;;;;39.67;16.47;;;;;;;;;;5059731;28;20250;-85
2022/03/25 06:52:24;;;;;;;43.13;16.50;;;;;;;;;;5052495;28;20243;-84
2022/03/25 06:54:52;;;;;;;43.50;17.53;;;;;;;;;;5049887;28;20211;-83
2022/03/25 06:57:19;;;;;;;38.10;17.20;;;;;;;;;;5053289;28;20760;-86
2022/03/25 06:59:48;;;;;;;39.33;16.60;;;;;;;;;;5054445;28;20221;-84
2022/03/25 07:02:16;;;;;;;43.27;18.83;;;;;;;;;;5051189;28;20508;-85
2022/03/25 07:04:44;;;;;;;40.37;18.13;;;;;;;;;;5056509;28;20297;-85
2022/03/25 07:07:12;;;;;;;47.43;18.33;;;;;;;;;;5058935;28;20278;-84
2022/03/25 07:09:40;;;;;;;39.67;17.07;;;;;;;;;;5053894;28;20236;-84
2022/03/25 07:12:08;;;;;;;39.53;17.93;;;;;;;;;;5053233;28;20353;-84
2022/03/25 07:14:35;;;;;;;38.27;17.80;;;;;;;;;;5057896;28;20237;-83
2022/03/25 07:17:04;;;;;;;42.30;17.63;;;;;;;;;;5054375;28;20298;-84
2022/03/25 07:19:31;;;;;;;41.03;18.20;;;;;;;;;;5053152;28;20227;-84
2022/03/25 07:21:58;;;;;;;37.80;17.83;;;;;;;;;;5044184;28;20233;-81
2022/03/25 07:24:26;;;;;;;39.47;18.67;;;;;;;;;;5048360;28;20203;-84
2022/03/25 07:26:53;;;;;;;42.47;18.70;;;;;;;;;;5050988;28;20229;-83
2022/03/25 07:29:20;;;;;;;38.27;17.97;;;;;;;;;;5054763;28;20647;-83
2022/03/25 07:31:47;;;;;;;42.13;18.27;;;;;;;;;;5052634;28;20305;-83
2022/03/25 07:34:16;;;;;;;41.07;18.57;;;;;;;;;;5050169;28;20290;-84
2022/03/25 07:36:43;;;;;;;39.03;18.20;;;;;;;;;;5053197;28;20631;-83
2022/03/25 07:39:10;;;;;;;36.00;19.07;;;;;;;;;;5051730;28;20224;-83
2022/03/25 07:41:38;;;;;;;43.27;18.17;;;;;;;;;;5052465;28;20228;-84
2022/03/25 07:44:05;;;;;;;40.57;19.27;;;;;;;;;;5053633;28;20210;-83
2022/03/25 07:46:32;;;;;;;43.03;17.90;;;;;;;;;;5051149;28;20221;-82
2022/03/25 07:49:00;;;;;;;40.07;17.97;;;;;;;;;;5055390;28;20269;-85
2022/03/25 07:51:29;;;;;;;44.03;19.10;;;;;;;;;;5055596;28;20266;-83
2022/03/25 07:53:56;;;;;;;36.03;18.53;;;;;;;;;;5052186;28;20196;-84
2022/03/25 07:56:23;;;;;;;38.60;18.23;;;;;;;;;;5055382;28;20206;-85
2022/03/25 07:58:51;;;;;;;38.93;19.37;;;;;;;;;;5052567;28;20261;-85
2022/03/25 08:01:18;;;;;;;38.87;18.63;;;;;;;;;;5051324;28;20279;-84
2022/03/25 08:03:45;;;;;;;38.20;18.43;;;;;;;;;;5052909;28;20282;-82
2022/03/25 08:06:16;;;;;;;36.93;18.43;;;;;;;;;;5045152;28;20227;-85
2022/03/25 08:08:47;;;;;;;41.40;18.50;;;;;;;;;;5045649;28;20272;-85
2022/03/25 08:11:14;;;;;;;41.70;17.83;;;;;;;;;;5052317;28;20198;-83
2022/03/25 08:13:41;;;;;;;43.10;18.87;;;;;;;;;;5057026;28;20183;-82
2022/03/25 08:16:08;;;;;;;33.73;17.93;;;;;;;;;;5062932;28;20967;-81
2022/03/25 08:18:36;;;;;;;41.90;18.03;;;;;;;;;;5068121;28;20276;-84
2022/03/25 08:21:03;;;;;;;35.93;17.93;;;;;;;;;;5056042;28;20634;-86
2022/03/25 08:29:01;;;;;;;42.47;19.80;;;;;;;;;;5052785;28;20222;-86
2022/03/25 08:31:29;;;;;;;39.47;18.97;;;;;;;;;;5053844;28;20226;-83
2022/03/25 08:33:56;;;;;;;42.30;18.10;;;;;;;;;;5052869;28;20238;-84
2022/03/25 08:36:23;;;;;;;36.27;19.33;;;;;;;;;;5054215;28;20222;-85
2022/03/25 08:38:50;;;;;;;44.13;20.07;;;;;;;;;;5049780;28;20660;-84
2022/03/25 08:41:19;;;;;;;38.60;18.47;;;;;;;;;;5053867;28;20778;-84
2022/03/25 08:43:48;;;;;;;37.10;18.23;;;;;;;;;;5062114;28;20250;-85
2022/03/25 08:46:15;;;;;;;45.87;19.40;;;;;;;;;;5055947;28;20212;-83
2022/03/25 08:48:42;;;;;;;42.97;18.50;;;;;;;;;;5055274;28;20206;-85
2022/03/25 08:51:10;;;;;;;39.00;18.93;;;;;;;;;;5056865;28;20679;-85
2022/03/25 08:53:37;;;;;;;38.60;18.27;;;;;;;;;;5057355;28;20302;-86
2022/03/25 08:56:04;;;;;;;38.73;19.13;;;;;;;;;;5046974;28;20212;-83
2022/03/25 08:58:35;;;;;;;41.23;19.57;;;;;;;;;;5049105;28;20594;-85
2022/03/25 09:01:03;;;;;;;44.50;20.03;;;;;;;;;;5051282;28;20290;-83
2022/03/25 09:03:30;;;;;;;44.33;20.47;;;;;;;;;;5058625;28;20322;-84
2022/03/25 09:05:57;;;;;;;46.30;20.47;;;;;;;;;;5056204;28;20227;-86
2022/03/25 09:08:24;;;;;;;46.63;21.50;;;;;;;;;;5054215;28;20194;-85
2022/03/25 09:10:53;;;;;;;42.90;21.10;;;;;;;;;;5051180;28;20211;-84
2022/03/25 09:13:20;;;;;;;47.90;22.20;;;;;;;;;;5050065;28;20227;-84
2022/03/25 09:15:49;;;;;;;47.10;21.47;;;;;;;;;;5048735;28;20200;-85
2022/03/25 09:18:16;;;;;;;49.93;23.00;;;;;;;;;;5054614;28;20213;-84
2022/03/25 09:20:45;;;;;;;49.60;23.83;;;;;;;;;;5050675;28;20242;-83
2022/03/25 09:23:12;;;;;;;54.17;24.37;;;;;;;;;;5048647;28;20783;-84
2022/03/25 09:25:42;;;;;;;53.20;24.33;;;;;;;;;;5049686;28;20203;-84
2022/03/25 09:28:09;;;;;;;50.67;24.77;;;;;;;;;;5053828;28;20562;-82
2022/03/25 09:30:37;;;;;;;55.73;25.37;;;;;;;;;;5059148;28;20265;-84
2022/03/25 09:33:07;;;;;;;56.97;25.30;;;;;;;;;;5049686;28;20675;-83
2022/03/25 09:35:34;;;;;;;59.67;25.73;;;;;;;;;;5055664;28;20238;-83
2022/03/25 09:38:02;;;;;;;55.70;24.80;;;;;;;;;;5057790;28;20285;-85
2022/03/25 09:40:29;;;;;;;56.80;24.93;;;;;;;;;;5050728;28;20670;-88
2022/03/25 09:42:57;;;;;;;54.87;25.13;;;;;;;;;;5046520;28;20306;-84
2022/03/25 09:45:25;;;;;;;58.27;25.40;;;;;;;;;;5056440;28;20211;-87
2022/03/25 09:47:53;;;;;;;63.40;25.80;;;;;;;;;;5056257;28;20183;-83
2022/03/25 09:50:22;;;;;;;60.40;26.83;;;;;;;;;;5066293;28;20222;-84
2022/03/25 09:52:50;;;;;;;60.97;27.57;;;;;;;;;;5074863;28;20242;-83
2022/03/25 09:55:17;;;;;;;55.17;25.83;;;;;;;;;;5061601;28;20633;-85
2022/03/25 09:57:44;;;;;;;59.80;27.50;;;;;;;;;;5062630;28;20290;-85
2022/03/25 10:00:14;;;;;;;58.60;25.13;;;;;;;;;;5049209;28;20266;-85
2022/03/25 10:02:42;;;;;;;53.10;24.60;;;;;;;;;;5052725;28;20241;-85
2022/03/25 10:05:16;;;;;;;58.77;25.77;;;;;;;;;;5054678;28;20200;-85
2022/03/25 10:07:49;;;;;;;59.90;25.97;;;;;;;;;;5053504;28;20218;-86
2022/03/25 10:10:17;;;;;;;63.63;26.03;;;;;;;;;;5048223;28;20200;-86
2022/03/25 10:12:45;;;;;;;54.77;25.60;;;;;;;;;;5048074;28;20978;-85
2022/03/25 10:15:14;;;;;;;56.43;25.93;;;;;;;;;;5053753;28;20199;-85
2022/03/25 10:17:56;;;;;;;63.93;25.70;;;;;;;;;;5050444;28;20215;-84
2022/03/25 10:20:24;;;;;;;59.23;24.60;;;;;;;;;;5048875;28;20338;-82
2022/03/25 10:23:13;;;;;;;61.43;25.00;;;;;;;;;;5052176;28;20515;-84
2022/03/25 10:25:42;;;;;;;60.93;26.40;;;;;;;;;;5045564;28;20199;-84
2022/03/25 10:28:27;;;;;;;53.17;25.47;;;;;;;;;;5050398;28;20520;-83
2022/03/25 10:30:55;;;;;;;59.63;27.23;;;;;;;;;;5050229;28;20207;-83
2022/03/25 10:33:27;;;;;;;59.33;27.80;;;;;;;;;;5045048;28;20234;-83
2022/03/25 10:36:02;;;;;;;56.33;25.13;;;;;;;;;;5044770;28;20209;-83
2022/03/25 10:38:41;;;;;;;52.00;25.20;;;;;;;;;;5043102;28;21556;-83
2022/03/25 10:41:10;;;;;;;54.13;25.90;;;;;;;;;;5045190;28;20290;-84
2022/03/25 10:43:48;;;;;;;56.33;25.67;;;;;;;;;;5047336;28;20291;-83
2022/03/25 10:46:27;;;;;;;56.57;26.07;;;;;;;;;;5049857;28;20313;-82
2022/03/25 10:48:54;;;;;;;59.07;26.30;;;;;;;;;;5047002;28;20207;-84
2022/03/25 10:51:22;;;;;;;53.03;24.43;;;;;;;;;;5053099;28;20263;-84
2022/03/25 10:53:56;;;;;;;57.23;25.57;;;;;;;;;;5053163;28;20650;-84
2022/03/25 10:56:25;;;;;;;54.23;25.63;;;;;;;;;;5047644;28;20202;-84
2022/03/25 10:58:52;;;;;;;55.77;24.67;;;;;;;;;;5047107;28;20294;-83
2022/03/25 11:01:19;;;;;;;53.97;26.07;;;;;;;;;;5058696;28;20230;-83
2022/03/25 11:03:48;;;;;;;52.07;24.80;;;;;;;;;;5059482;28;20221;-84
2022/03/25 11:06:16;;;;;;;54.20;24.73;;;;;;;;;;5049030;28;20906;-85
2022/03/25 11:08:44;;;;;;;52.50;25.27;;;;;;;;;;5059807;28;20203;-83
2022/03/25 11:11:11;;;;;;;57.97;25.73;;;;;;;;;;5057110;28;20207;-85
2022/03/25 11:13:39;;;;;;;62.03;26.10;;;;;;;;;;5061682;28;20234;-83
2022/03/25 11:16:09;;;;;;;54.63;25.30;;;;;;;;;;5059337;28;20202;-85
2022/03/25 11:18:37;;;;;;;53.97;26.80;;;;;;;;;;5058456;28;20199;-85
2022/03/25 11:21:06;;;;;;;59.60;26.40;;;;;;;;;;5064220;28;20247;-82
2022/03/25 11:23:38;;;;;;;57.80;25.63;;;;;;;;;;5073037;28;20209;-83
2022/03/25 11:26:08;;;;;;;61.30;26.33;;;;;;;;;;5074646;28;20207;-82
2022/03/25 11:28:35;;;;;;;54.30;25.23;;;;;;;;;;5063366;28;20281;-84
2022/03/25 11:31:05;;;;;;;61.77;28.03;;;;;;;;;;5055766;28;20223;-84
2022/03/25 11:33:32;;;;;;;57.40;26.13;;;;;;;;;;5057934;28;20226;-84
2022/03/25 11:36:13;;;;;;;63.73;27.17;;;;;;;;;;5055118;28;20254;-86
2022/03/25 11:38:40;;;;;;;54.43;26.63;;;;;;;;;;5056303;28;20203;-84
2022/03/25 11:41:21;;;;;;;58.57;26.57;;;;;;;;;;5062238;28;20706;-86
2022/03/25 11:44:17;;;;;;;57.80;25.37;;;;;;;;;;5051737;28;20249;-82
2022/03/25 11:47:15;;;;;;;55.90;26.10;;;;;;;;;;5050017;28;20630;-85
2022/03/25 11:49:44;;;;;;;64.43;26.53;;;;;;;;;;4970327;28;20691;-83
2022/03/25 11:52:29;;;;;;;57.63;26.10;;;;;;;;;;5031688;28;20237;-84
2022/03/25 11:54:58;;;;;;;52.33;25.13;;;;;;;;;;5044409;28;20334;-86
2022/03/25 11:57:26;;;;;;;57.10;26.73;;;;;;;;;;5053908;28;20234;-86
2022/03/25 11:59:54;;;;;;;53.93;25.07;;;;;;;;;;5056095;28;20223;-88
2022/03/25 12:02:25;;;;;;;59.40;26.67;;;;;;;;;;5056711;28;20284;-85
2022/03/25 12:04:53;;;;;;;64.53;26.17;;;;;;;;;;5056177;28;20219;-84
2022/03/25 12:07:20;;;;;;;54.17;24.80;;;;;;;;;;5058888;28;20234;-84
2022/03/25 12:09:48;;;;;;;52.67;25.37;;;;;;;;;;5060910;28;20227;-87
2022/03/25 12:12:15;;;;;;;50.47;24.47;;;;;;;;;;5067311;28;20233;-84
2022/03/25 12:15:01;;;;;;;55.90;24.80;;;;;;;;;;5060159;28;20372;-86
2022/03/25 12:17:31;;;;;;;56.53;25.33;;;;;;;;;;5046001;28;20207;-86
2022/03/25 12:20:01;;;;;;;50.47;25.83;;;;;;;;;;5054877;28;20245;-87
2022/03/25 12:22:30;;;;;;;55.83;25.33;;;;;;;;;;5048206;28;20655;-85
2022/03/25 12:24:58;;;;;;;55.47;25.50;;;;;;;;;;5046736;28;20206;-84
2022/03/25 12:27:26;;;;;;;52.43;24.00;;;;;;;;;;5059303;28;20220;-83
2022/03/25 12:29:54;;;;;;;51.30;24.17;;;;;;;;;;5051823;28;20257;-85
2022/03/25 12:32:24;;;;;;;52.60;24.03;;;;;;;;;;5052316;28;20228;-85
2022/03/25 12:34:55;;;;;;;50.27;23.67;;;;;;;;;;5050138;28;20284;-84
2022/03/25 12:37:29;;;;;;;49.53;24.67;;;;;;;;;;5051233;28;20253;-85
2022/03/25 12:39:56;;;;;;;52.67;24.47;;;;;;;;;;5060782;28;20226;-84
2022/03/25 12:42:28;;;;;;;54.37;24.93;;;;;;;;;;5069516;28;20218;-85
2022/03/25 12:44:56;;;;;;;51.30;23.30;;;;;;;;;;5065397;28;20825;-86
2022/03/25 12:47:32;;;;;;;53.67;24.23;;;;;;;;;;5062742;28;20203;-84
2022/03/25 12:50:00;;;;;;;50.23;24.33;;;;;;;;;;5058036;28;20202;-84
2022/03/25 12:52:29;;;;;;;53.57;24.87;;;;;;;;;;5067160;28;20227;-87
2022/03/25 12:54:56;;;;;;;47.70;23.50;;;;;;;;;;5061690;28;20651;-83
2022/03/25 12:57:33;;;;;;;63.17;24.27;;;;;;;;;;5064948;28;20261;-83
2022/03/25 13:00:00;;;;;;;53.70;23.47;;;;;;;;;;5057315;28;20273;-84
2022/03/25 13:02:33;;;;;;;49.93;23.23;;;;;;;;;;5060113;28;20747;-84
2022/03/25 13:05:21;;;;;;;49.13;22.67;;;;;;;;;;5062615;28;20210;-84
2022/03/25 13:07:52;;;;;;;50.80;23.27;;;;;;;;;;5058065;28;20258;-84
2022/03/25 13:10:20;;;;;;;46.50;22.60;;;;;;;;;;5058488;28;20198;-83
2022/03/25 13:12:51;;;;;;;44.23;21.97;;;;;;;;;;5064364;28;20252;-85
2022/03/25 13:15:23;;;;;;;46.23;21.43;;;;;;;;;;5059190;28;20745;-83
2022/03/25 13:17:52;;;;;;;42.83;20.87;;;;;;;;;;5062777;28;20201;-84
2022/03/25 13:20:20;;;;;;;46.63;21.47;;;;;;;;;;5058865;28;20250;-85
2022/03/25 13:22:56;;;;;;;45.43;21.73;;;;;;;;;;5058290;28;20254;-84
2022/03/25 13:25:27;;;;;;;49.10;22.73;;;;;;;;;;5061686;28;20203;-85
2022/03/25 13:27:56;;;;;;;46.23;22.47;;;;;;;;;;5064411;28;20237;-85
2022/03/25 13:30:26;;;;;;;42.57;20.13;;;;;;;;;;5058529;28;20288;-83
2022/03/25 13:32:58;;;;;;;50.07;22.70;;;;;;;;;;5059278;28;20238;-85
2022/03/25 13:35:32;;;;;;;45.13;22.53;;;;;;;;;;5054335;28;20298;-84
2022/03/25 13:38:00;;;;;;;43.03;21.53;;;;;;;;;;5055445;28;20218;-85
2022/03/25 13:40:29;;;;;;;46.33;22.23;;;;;;;;;;5057426;28;20277;-85
2022/03/25 13:42:57;;;;;;;46.17;21.13;;;;;;;;;;5057657;28;20239;-83
2022/03/25 13:45:25;;;;;;;46.27;21.47;;;;;;;;;;5054993;28;20276;-82
2022/03/25 13:48:02;;;;;;;52.00;22.17;;;;;;;;;;5048179;28;20257;-83
2022/03/25 13:50:29;;;;;;;43.80;21.53;;;;;;;;;;5050974;28;20328;-85
2022/03/25 13:52:59;;;;;;;42.90;21.17;;;;;;;;;;5050832;28;20226;-85
2022/03/25 13:55:36;;;;;;;44.87;21.33;;;;;;;;;;5047945;28;20204;-83
2022/03/25 13:58:04;;;;;;;40.97;20.57;;;;;;;;;;5052370;28;20198;-84
2022/03/25 14:00:32;;;;;;;41.50;20.03;;;;;;;;;;5057789;28;20255;-83
2022/03/25 14:02:59;;;;;;;49.63;21.07;;;;;;;;;;5052864;28;20319;-84
2022/03/25 14:05:27;;;;;;;36.60;19.17;;;;;;;;;;5046460;28;20617;-84
2022/03/25 14:07:57;;;;;;;47.87;21.17;;;;;;;;;;5050804;28;20267;-84
2022/03/25 14:10:25;;;;;;;40.93;20.03;;;;;;;;;;5055220;28;20297;-86
2022/03/25 14:13:01;;;;;;;44.73;20.87;;;;;;;;;;5050021;28;20230;-84
2022/03/25 14:15:29;;;;;;;44.13;21.40;;;;;;;;;;5042892;28;20210;-86
2022/03/25 14:17:56;;;;;;;45.27;20.07;;;;;;;;;;5039992;28;20202;-86
2022/03/25 14:20:26;;;;;;;44.20;19.73;;;;;;;;;;5043188;28;20222;-83
2022/03/25 14:22:54;;;;;;;44.47;20.47;;;;;;;;;;5046176;28;20234;-82
2022/03/25 14:25:22;;;;;;;42.47;20.57;;;;;;;;;;5042831;28;21100;-83
2022/03/25 14:27:51;;;;;;;41.60;19.73;;;;;;;;;;5046339;28;20205;-84
2022/03/25 14:30:20;;;;;;;50.03;19.43;;;;;;;;;;5043838;28;20210;-83